createdAt,value
2022-12-19T00:00:32.592Z,25.00
2022-12-19T00:03:00.668Z,25.21
2022-12-19T00:05:29.683Z,25.03
2022-12-19T00:07:57.138Z,24.63
2022-12-19T00:10:26.855Z,25.20
2022-12-19T00:12:55.381Z,24.71
2022-12-19T00:15:22.809Z,25.41
2022-12-19T00:17:50.242Z,24.73
2022-12-19T00:20:18.661Z,24.05
2022-12-19T00:22:47.645Z,25.46
2022-12-19T00:25:17.379Z,25.52
2022-12-19T00:27:44.952Z,25.27
2022-12-19T00:30:13.243Z,25.65
2022-12-19T00:32:41.454Z,25.33
2022-12-19T00:35:09.837Z,25.17
2022-12-19T00:37:37.480Z,25.30
2022-12-19T00:40:11.762Z,25.60
2022-12-19T00:42:39.357Z,25.32
2022-12-19T00:45:07.544Z,25.37
2022-12-19T00:47:35.517Z,25.68
2022-12-19T00:50:03.556Z,25.26
2022-12-19T00:52:31.034Z,25.36
2022-12-19T00:55:00.684Z,25.32
2022-12-19T00:57:31.561Z,25.74
2022-12-19T00:59:59.000Z,25.30
2022-12-19T01:02:27.437Z,25.20
2022-12-19T01:04:55.329Z,24.95
2022-12-19T01:07:22.798Z,24.99
2022-12-19T01:09:50.333Z,25.43
2022-12-19T01:12:18.800Z,25.49
2022-12-19T01:14:49.351Z,26.51
2022-12-19T01:17:16.872Z,26.12
2022-12-19T01:19:44.861Z,25.73
2022-12-19T01:22:12.689Z,25.99
2022-12-19T01:24:40.619Z,25.65
2022-12-19T01:27:08.264Z,25.36
2022-12-19T01:29:38.708Z,25.79
2022-12-19T01:32:21.526Z,26.13
2022-12-19T01:34:49.475Z,26.35
2022-12-19T01:37:20.496Z,26.55
2022-12-19T01:39:47.935Z,25.89
2022-12-19T01:42:19.605Z,25.43
2022-12-19T01:45:06.358Z,25.17
2022-12-19T01:47:43.458Z,25.71
2022-12-19T01:50:18.133Z,25.80
2022-12-19T01:52:46.682Z,25.54
2022-12-19T01:55:15.025Z,25.39
2022-12-19T01:57:42.530Z,25.66
2022-12-19T02:00:11.265Z,25.29
2022-12-19T02:02:48.821Z,25.29
2022-12-19T02:05:16.955Z,25.32
2022-12-19T02:07:45.271Z,25.37
2022-12-19T02:10:12.875Z,25.28
2022-12-19T02:12:43.240Z,24.70
2022-12-19T02:15:14.876Z,25.31
2022-12-19T02:17:57.678Z,25.19
2022-12-19T02:21:03.793Z,24.92
2022-12-19T02:24:13.188Z,25.57
2022-12-19T02:27:04.165Z,25.19
2022-12-19T02:30:02.289Z,25.61
2022-12-19T02:32:34.700Z,25.36
2022-12-19T02:35:13.582Z,25.37
2022-12-19T02:37:48.931Z,26.02
2022-12-19T02:40:24.796Z,25.57
2022-12-19T02:42:57.750Z,25.54
2022-12-19T02:45:28.606Z,25.64
2022-12-19T02:48:03.327Z,25.02
2022-12-19T02:50:39.682Z,25.33
2022-12-19T02:53:09.510Z,25.24
2022-12-19T02:55:48.173Z,25.36
2022-12-19T02:58:43.800Z,25.13
2022-12-19T03:01:26.765Z,25.80
2022-12-19T03:04:06.515Z,25.62
2022-12-19T03:06:42.021Z,25.11
2022-12-19T03:09:20.115Z,25.15
2022-12-19T03:11:52.395Z,25.65
2022-12-19T03:14:26.741Z,25.67
2022-12-19T03:16:56.086Z,25.42
2022-12-19T03:19:25.376Z,24.88
2022-12-19T03:21:52.897Z,24.39
2022-12-19T03:24:20.448Z,25.72
2022-12-19T03:26:53.335Z,25.63
2022-12-19T03:29:25.757Z,25.30
2022-12-19T03:31:54.454Z,25.12
2022-12-19T03:34:28.890Z,24.80
2022-12-19T03:37:00.110Z,25.45
2022-12-19T03:39:29.322Z,25.63
2022-12-19T03:41:59.408Z,25.43
2022-12-19T03:44:31.563Z,25.71
2022-12-19T03:47:06.155Z,25.24
2022-12-19T03:49:36.576Z,25.15
2022-12-19T03:52:12.946Z,25.40
2022-12-19T03:54:44.640Z,25.05
2022-12-19T03:57:19.301Z,25.23
2022-12-19T03:59:51.843Z,25.44
2022-12-19T04:02:22.114Z,25.33
2022-12-19T04:04:55.527Z,25.70
2022-12-19T04:07:24.353Z,25.49
2022-12-19T04:09:54.609Z,25.66
2022-12-19T04:12:25.731Z,25.42
2022-12-19T04:14:53.402Z,25.41
2022-12-19T04:17:34.887Z,25.48
2022-12-19T04:20:06.556Z,25.53
2022-12-19T04:22:40.077Z,25.23
2022-12-19T04:25:11.559Z,25.30
2022-12-19T04:27:43.887Z,25.33
2022-12-19T04:30:14.895Z,25.58
2022-12-19T04:32:45.967Z,25.69
2022-12-19T04:35:15.726Z,25.56
2022-12-19T04:37:43.356Z,25.48
2022-12-19T04:40:11.963Z,25.56
2022-12-19T04:42:40.428Z,25.41
2022-12-19T04:45:08.680Z,25.18
2022-12-19T04:47:36.336Z,25.55
2022-12-19T04:50:05.281Z,25.28
2022-12-19T04:52:34.188Z,25.78
2022-12-19T04:55:01.665Z,25.34
2022-12-19T04:57:30.547Z,25.74
2022-12-19T04:59:58.667Z,26.14
2022-12-19T05:02:26.649Z,26.10
2022-12-19T05:04:54.359Z,25.84
2022-12-19T05:07:21.783Z,24.54
2022-12-19T05:09:50.679Z,25.57
2022-12-19T05:12:18.184Z,24.96
2022-12-19T05:14:46.036Z,24.84
2022-12-19T05:17:13.929Z,25.26
2022-12-19T05:19:42.115Z,25.12
2022-12-19T05:22:09.527Z,25.08
2022-12-19T05:24:37.088Z,25.28
2022-12-19T05:27:06.107Z,25.42
2022-12-19T05:29:33.655Z,24.85
2022-12-19T05:32:01.742Z,24.82
2022-12-19T05:34:29.898Z,25.42
2022-12-19T05:36:57.348Z,25.50
2022-12-19T05:39:24.967Z,25.73
2022-12-19T05:41:52.445Z,25.72
2022-12-19T05:44:21.509Z,25.40
2022-12-19T05:46:48.958Z,25.05
2022-12-19T05:49:16.727Z,25.56
2022-12-19T05:51:48.736Z,24.90
2022-12-19T05:54:16.176Z,24.98
2022-12-19T05:56:43.635Z,25.84
2022-12-19T05:59:11.088Z,25.50
2022-12-19T06:01:40.162Z,25.41
2022-12-19T06:04:07.704Z,25.00
2022-12-19T06:06:35.536Z,25.81
2022-12-19T06:09:03.369Z,25.76
2022-12-19T06:11:30.893Z,25.98
2022-12-19T06:13:58.442Z,25.34
2022-12-19T06:16:26.009Z,26.15
2022-12-19T06:18:55.283Z,25.50
2022-12-19T06:21:23.412Z,25.89
2022-12-19T06:23:51.203Z,25.82
2022-12-19T06:26:20.673Z,25.14
2022-12-19T06:28:49.215Z,25.66
2022-12-19T06:31:17.392Z,26.11
2022-12-19T06:33:45.331Z,25.77
2022-12-19T06:36:18.818Z,25.85
2022-12-19T06:38:46.942Z,26.10
2022-12-19T06:41:15.639Z,26.06
2022-12-19T06:43:43.277Z,26.06
2022-12-19T06:46:11.677Z,26.10
2022-12-19T06:48:39.337Z,26.29
2022-12-19T06:51:07.163Z,25.89
2022-12-19T06:53:36.195Z,25.65
2022-12-19T06:56:04.579Z,25.80
2022-12-19T06:58:33.658Z,25.88
2022-12-19T07:01:01.471Z,26.29
2022-12-19T07:03:39.094Z,26.34
2022-12-19T07:06:07.399Z,25.76
2022-12-19T07:08:36.465Z,25.93
2022-12-19T07:11:04.590Z,26.26
2022-12-19T07:13:32.149Z,25.85
2022-12-19T07:16:03.098Z,26.22
2022-12-19T07:18:33.922Z,26.05
2022-12-19T07:21:02.266Z,25.92
2022-12-19T07:23:30.035Z,26.24
2022-12-19T07:25:59.282Z,26.11
2022-12-19T07:28:27.072Z,26.18
2022-12-19T07:30:54.535Z,25.82
2022-12-19T07:33:22.308Z,26.29
2022-12-19T07:35:49.819Z,26.24
2022-12-19T07:38:17.308Z,26.21
2022-12-19T07:40:44.737Z,26.79
2022-12-19T07:43:14.371Z,26.46
2022-12-19T07:45:43.304Z,26.06
2022-12-19T07:48:10.816Z,26.05
2022-12-19T07:50:38.465Z,26.79
2022-12-19T07:53:06.089Z,26.93
2022-12-19T07:55:33.599Z,26.54
2022-12-19T07:58:01.328Z,26.49
2022-12-19T08:00:30.241Z,26.74
2022-12-19T08:02:59.189Z,26.61
2022-12-19T08:05:26.842Z,26.73
2022-12-19T08:07:54.331Z,26.40
2022-12-19T08:10:22.351Z,26.52
2022-12-19T08:12:49.902Z,26.48
2022-12-19T08:15:17.669Z,26.60
2022-12-19T08:17:46.556Z,26.61
2022-12-19T08:20:14.158Z,26.80
2022-12-19T08:22:41.575Z,26.69
2022-12-19T08:25:09.597Z,26.66
2022-12-19T08:27:39.018Z,26.41
2022-12-19T08:30:08.951Z,26.92
2022-12-19T08:32:36.528Z,26.36
2022-12-19T08:35:06.765Z,26.24
2022-12-19T08:40:17.430Z,26.00
2022-12-19T08:42:44.971Z,26.12
2022-12-19T08:45:12.807Z,26.20
2022-12-19T08:47:40.321Z,26.05
2022-12-19T08:50:10.335Z,26.54
2022-12-19T08:52:38.071Z,26.30
2022-12-19T08:55:06.588Z,26.42
2022-12-19T08:57:34.074Z,28.70
2022-12-19T09:00:01.607Z,26.87
2022-12-19T09:02:30.071Z,26.56
2022-12-19T09:05:57.907Z,26.28
2022-12-19T09:07:46.656Z,26.28
2022-12-19T09:10:14.293Z,27.01
2022-12-19T09:12:43.876Z,26.67
2022-12-19T09:17:52.825Z,26.38
2022-12-19T09:20:23.397Z,25.48
2022-12-19T09:22:52.791Z,27.29
2022-12-19T09:25:20.295Z,28.54
2022-12-19T09:28:25.832Z,29.13
2022-12-19T09:30:35.560Z,26.95
2022-12-19T09:33:03.963Z,26.31
2022-12-19T09:35:31.756Z,26.17
2022-12-19T09:38:01.207Z,26.43
2022-12-19T09:40:31.532Z,26.81
2022-12-19T09:43:08.871Z,26.76
2022-12-19T09:45:50.138Z,26.72
2022-12-19T09:48:24.497Z,26.68
2022-12-19T09:51:09.653Z,26.48
2022-12-19T09:53:54.251Z,26.39
2022-12-19T09:56:25.985Z,26.04
2022-12-19T09:59:01.049Z,26.77
2022-12-19T10:01:32.660Z,27.00
2022-12-19T10:04:05.195Z,26.64
2022-12-19T10:07:00.746Z,25.80
2022-12-19T10:12:00.256Z,26.27
2022-12-19T10:12:43.618Z,25.97
2022-12-19T10:15:23.284Z,26.37
2022-12-19T10:18:04.694Z,26.27
2022-12-19T10:20:37.239Z,26.47
2022-12-19T10:23:24.283Z,26.48
2022-12-19T10:25:59.771Z,26.35
2022-12-19T10:28:42.285Z,26.36
2022-12-19T10:31:21.966Z,26.39
2022-12-19T10:33:57.576Z,26.41
2022-12-19T10:36:48.621Z,26.33
2022-12-19T10:39:22.425Z,26.81
2022-12-19T10:41:56.867Z,26.22
2022-12-19T10:44:28.482Z,26.39
2022-12-19T10:46:56.557Z,26.45
2022-12-19T10:49:26.896Z,26.61
2022-12-19T10:51:58.798Z,26.14
2022-12-19T10:54:37.129Z,26.67
2022-12-19T10:57:23.486Z,26.33
2022-12-19T10:59:58.636Z,26.22
2022-12-19T11:02:40.852Z,26.13
2022-12-19T11:05:24.046Z,26.83
2022-12-19T11:08:02.230Z,26.64
2022-12-19T11:12:03.977Z,26.50
2022-12-19T11:18:51.977Z,26.53
2022-12-19T11:22:05.391Z,26.02
2022-12-19T11:29:31.409Z,26.02
2022-12-19T11:29:37.052Z,26.48
2022-12-19T11:29:41.908Z,27.01
2022-12-19T11:30:47.661Z,26.16
2022-12-19T11:33:30.988Z,26.04
2022-12-19T11:36:00.971Z,26.40
2022-12-19T11:38:42.566Z,25.98
2022-12-19T11:41:16.441Z,26.34
2022-12-19T11:43:53.175Z,26.20
2022-12-19T11:46:37.344Z,25.58
2022-12-19T11:49:12.292Z,25.26
2022-12-19T11:51:49.057Z,26.19
2022-12-19T11:54:22.172Z,26.43
2022-12-19T11:56:50.388Z,26.33
2022-12-19T11:59:20.138Z,25.95
2022-12-19T12:01:57.334Z,25.95
2022-12-19T12:04:55.902Z,26.82
2022-12-19T12:08:27.117Z,27.65
2022-12-19T12:18:04.849Z,26.72
2022-12-19T12:18:50.516Z,26.43
2022-12-19T12:24:10.213Z,26.65
2022-12-19T12:31:22.105Z,26.68
2022-12-19T12:31:22.106Z,26.42
2022-12-19T12:31:31.738Z,26.71
2022-12-19T12:31:56.860Z,26.17
2022-12-19T12:34:25.133Z,26.28
2022-12-19T12:40:25.992Z,26.41
2022-12-19T12:43:04.317Z,26.32
2022-12-19T12:45:37.092Z,25.72
2022-12-19T12:48:18.213Z,25.59
2022-12-19T12:50:54.795Z,25.44
2022-12-19T12:53:26.713Z,25.86
2022-12-19T12:55:57.258Z,25.25
2022-12-19T12:59:01.822Z,25.04
2022-12-19T13:01:35.621Z,25.48
2022-12-19T13:04:07.054Z,25.79
2022-12-19T13:06:39.131Z,25.66
2022-12-19T13:09:24.314Z,25.77
2022-12-19T13:12:02.911Z,25.87
2022-12-19T13:14:48.862Z,25.69
2022-12-19T13:17:44.652Z,25.73
2022-12-19T13:20:40.859Z,25.77
2022-12-19T13:23:22.826Z,25.76
2022-12-19T13:25:53.030Z,26.66
2022-12-19T13:28:41.447Z,26.38
2022-12-19T13:31:23.283Z,26.83
2022-12-19T13:34:19.513Z,26.21
2022-12-19T13:39:49.332Z,26.63
2022-12-19T13:39:59.502Z,26.12
2022-12-19T13:42:35.024Z,26.16
2022-12-19T13:45:09.008Z,25.60
2022-12-19T13:47:41.245Z,26.40
2022-12-19T13:50:22.421Z,25.90
2022-12-19T13:52:50.310Z,25.83
2022-12-19T13:55:20.127Z,26.08
2022-12-19T13:57:49.101Z,25.15
2022-12-19T14:00:21.268Z,25.47
2022-12-19T14:02:51.889Z,25.61
2022-12-19T14:05:53.336Z,25.29
2022-12-19T14:08:19.625Z,25.30
2022-12-19T14:11:48.247Z,25.89
2022-12-19T14:13:53.821Z,26.01
2022-12-19T14:16:43.223Z,25.29
2022-12-19T14:19:19.910Z,25.84
2022-12-19T14:22:06.931Z,26.28
2022-12-19T14:24:35.264Z,25.92
2022-12-19T14:28:24.935Z,25.82
2022-12-19T14:30:30.029Z,25.41
2022-12-19T14:33:45.929Z,25.78
2022-12-19T14:36:12.444Z,25.61
2022-12-19T14:39:25.839Z,25.59
2022-12-19T14:41:31.550Z,25.63
2022-12-19T14:52:26.236Z,25.88
2022-12-19T14:52:35.817Z,26.14
2022-12-19T14:54:20.629Z,26.13
2022-12-19T14:54:44.052Z,25.66
2022-12-19T14:56:03.861Z,26.00
2022-12-19T14:58:54.154Z,26.28
2022-12-19T15:01:23.706Z,26.16
2022-12-19T15:04:48.265Z,25.48
2022-12-19T15:07:08.448Z,26.01
2022-12-19T15:10:58.319Z,25.71
2022-12-19T15:14:49.588Z,25.63
2022-12-19T15:15:22.099Z,25.72
2022-12-19T15:17:52.692Z,25.52
2022-12-19T15:20:20.641Z,25.94
2022-12-19T15:22:48.197Z,25.62
2022-12-19T15:25:36.530Z,25.86
2022-12-19T15:28:12.237Z,25.71
2022-12-19T15:30:43.196Z,25.81
2022-12-19T15:33:16.824Z,25.87
2022-12-19T15:35:44.681Z,25.63
2022-12-19T15:38:12.376Z,25.76
2022-12-19T15:40:41.647Z,24.85
2022-12-19T15:43:53.119Z,26.02
2022-12-19T15:46:03.735Z,25.83
2022-12-19T15:48:38.084Z,25.74
2022-12-19T15:51:05.813Z,26.08
2022-12-19T15:53:40.814Z,26.10
2022-12-19T15:56:23.564Z,25.66
2022-12-19T15:58:52.515Z,25.96
2022-12-19T16:01:20.232Z,26.12
2022-12-19T16:03:50.362Z,26.10
2022-12-19T16:06:18.314Z,25.90
2022-12-19T16:08:46.544Z,25.90
2022-12-19T16:11:20.304Z,26.26
2022-12-19T16:13:51.809Z,26.23
2022-12-19T16:16:19.431Z,25.51
2022-12-19T16:18:48.734Z,26.19
2022-12-19T16:21:24.725Z,26.29
2022-12-19T16:23:57.283Z,26.24
2022-12-19T16:26:32.800Z,26.11
2022-12-19T16:29:01.445Z,26.07
2022-12-19T16:31:29.567Z,25.45
2022-12-19T16:33:58.692Z,25.69
2022-12-19T16:36:26.246Z,25.63
2022-12-19T16:38:54.291Z,25.94
2022-12-19T16:41:24.163Z,26.00
2022-12-19T16:43:52.823Z,25.47
2022-12-19T16:46:22.427Z,25.94
2022-12-19T16:48:50.747Z,26.79
2022-12-19T16:51:22.000Z,26.10
2022-12-19T16:53:50.683Z,25.51
2022-12-19T16:56:24.459Z,26.32
2022-12-19T16:58:52.902Z,26.56
2022-12-19T17:01:21.162Z,25.85
2022-12-19T17:03:48.828Z,26.44
2022-12-19T17:06:18.330Z,26.30
2022-12-19T17:08:47.715Z,26.09
2022-12-19T17:11:18.564Z,26.33
2022-12-19T17:13:48.527Z,26.47
2022-12-19T17:16:16.369Z,26.06
2022-12-19T17:18:45.287Z,26.47
2022-12-19T17:21:17.321Z,26.04
2022-12-19T17:23:47.510Z,26.18
2022-12-19T17:26:17.993Z,25.45
2022-12-19T17:28:46.078Z,25.79
2022-12-19T17:31:22.529Z,25.99
2022-12-19T17:33:50.502Z,26.13
2022-12-19T17:36:23.043Z,26.15
2022-12-19T17:38:53.509Z,26.37
2022-12-19T17:41:20.990Z,25.86
2022-12-19T17:43:48.525Z,25.73
2022-12-19T17:46:17.916Z,26.18
2022-12-19T17:48:46.789Z,26.06
2022-12-19T17:51:14.479Z,26.26
2022-12-19T17:53:42.113Z,25.59
2022-12-19T17:56:13.766Z,25.66
2022-12-19T17:58:41.625Z,25.92
2022-12-19T18:01:20.782Z,25.33
2022-12-19T18:03:49.458Z,26.04
2022-12-19T18:06:17.384Z,25.75
2022-12-19T18:08:45.293Z,26.07
2022-12-19T18:11:19.935Z,26.23
2022-12-19T18:13:47.600Z,25.25
2022-12-19T18:16:17.540Z,25.73
2022-12-19T18:18:46.327Z,26.07
2022-12-19T18:21:17.167Z,25.36
2022-12-19T18:23:44.884Z,25.54
2022-12-19T18:26:13.303Z,25.97
2022-12-19T18:28:43.897Z,25.90
2022-12-19T18:31:15.600Z,25.58
2022-12-19T18:33:46.882Z,25.52
2022-12-19T18:36:19.346Z,25.94
2022-12-19T18:38:47.583Z,25.81
2022-12-19T18:41:16.571Z,25.77
2022-12-19T18:43:45.942Z,25.82
2022-12-19T18:46:14.874Z,25.79
2022-12-19T18:48:44.574Z,25.62
2022-12-19T18:51:16.548Z,25.78
2022-12-19T18:53:46.276Z,26.23
2022-12-19T18:56:14.677Z,25.62
2022-12-19T18:58:42.174Z,25.27
2022-12-19T19:01:15.388Z,25.61
2022-12-19T19:03:48.992Z,25.86
2022-12-19T19:06:19.423Z,25.78
2022-12-19T19:08:47.086Z,25.68
2022-12-19T19:11:39.722Z,25.83
2022-12-19T19:14:07.247Z,25.21
2022-12-19T19:16:37.163Z,25.82
2022-12-19T19:19:08.385Z,25.40
2022-12-19T19:21:36.416Z,25.68
2022-12-19T19:24:08.885Z,25.45
2022-12-19T19:26:36.392Z,25.43
2022-12-19T19:29:04.331Z,25.34
2022-12-19T19:31:37.026Z,25.35
2022-12-19T19:34:09.158Z,25.40
2022-12-19T19:36:38.680Z,25.12
2022-12-19T19:39:06.313Z,25.75
2022-12-19T19:41:33.788Z,25.39
2022-12-19T19:44:01.331Z,25.36
2022-12-19T19:46:29.303Z,25.12
2022-12-19T19:48:58.424Z,25.48
2022-12-19T19:51:26.490Z,25.63
2022-12-19T19:53:53.921Z,25.46
2022-12-19T19:56:21.413Z,25.50
2022-12-19T19:58:48.956Z,25.64
2022-12-19T20:01:16.684Z,25.61
2022-12-19T20:03:45.209Z,25.18
2022-12-19T20:06:14.616Z,25.51
2022-12-19T20:08:42.150Z,25.20
2022-12-19T20:11:10.190Z,25.42
2022-12-19T20:13:38.344Z,25.43
2022-12-19T20:16:07.630Z,25.76
2022-12-19T20:18:36.308Z,25.18
2022-12-19T20:21:09.221Z,24.96
2022-12-19T20:23:42.280Z,25.24
2022-12-19T20:26:10.417Z,25.32
2022-12-19T20:28:43.871Z,25.12
2022-12-19T20:31:16.413Z,24.43
2022-12-19T20:33:43.872Z,24.79
2022-12-19T20:36:12.867Z,25.38
2022-12-19T20:38:42.523Z,25.20
2022-12-19T20:41:09.661Z,25.44
2022-12-19T20:43:37.256Z,25.10
2022-12-19T20:46:08.095Z,25.36
2022-12-19T20:48:35.749Z,25.08
2022-12-19T20:51:04.079Z,25.29
2022-12-19T20:53:31.784Z,25.53
2022-12-19T20:56:02.189Z,25.39
2022-12-19T20:58:31.932Z,24.76
2022-12-19T21:01:04.885Z,25.20
2022-12-19T21:03:32.646Z,24.65
2022-12-19T21:06:00.656Z,24.84
2022-12-19T21:08:28.378Z,25.02
2022-12-19T21:10:56.343Z,24.38
2022-12-19T21:13:25.529Z,24.26
2022-12-19T21:15:54.115Z,25.19
2022-12-19T21:18:21.982Z,23.71
2022-12-19T21:20:50.907Z,25.16
2022-12-19T21:23:18.370Z,25.17
2022-12-19T21:25:45.827Z,25.01
2022-12-19T21:28:13.542Z,24.59
2022-12-19T21:30:42.620Z,24.18
2022-12-19T21:33:10.528Z,24.86
2022-12-19T21:35:38.226Z,24.83
2022-12-19T21:38:05.660Z,24.88
2022-12-19T21:40:35.522Z,24.67
2022-12-19T21:43:08.088Z,25.07
2022-12-19T21:45:39.152Z,24.91
2022-12-19T21:48:08.235Z,24.47
2022-12-19T21:50:35.699Z,24.75
2022-12-19T21:53:03.221Z,24.83
2022-12-19T21:55:30.651Z,24.48
2022-12-19T21:57:59.655Z,24.55
2022-12-19T22:00:27.202Z,24.24
2022-12-19T22:03:12.755Z,24.55
2022-12-19T22:05:43.312Z,24.79
2022-12-19T22:08:11.374Z,24.56
2022-12-19T22:10:39.149Z,24.76
2022-12-19T22:13:06.562Z,25.43
2022-12-19T22:15:35.669Z,25.06
2022-12-19T22:18:03.194Z,25.54
2022-12-19T22:20:30.664Z,25.07
2022-12-19T22:22:59.556Z,25.42
2022-12-19T22:25:27.127Z,25.26
2022-12-19T22:27:55.857Z,25.15
2022-12-19T22:30:23.305Z,24.88
2022-12-19T22:32:50.752Z,24.86
2022-12-19T22:35:18.343Z,24.60
2022-12-19T22:37:45.934Z,25.11
2022-12-19T22:40:15.267Z,25.78
2022-12-19T22:42:42.707Z,24.72
2022-12-19T22:45:10.873Z,24.73
2022-12-19T22:47:42.120Z,24.30
2022-12-19T22:50:09.992Z,24.70
2022-12-19T22:52:38.286Z,24.58
2022-12-19T22:55:06.741Z,24.95
2022-12-19T22:57:35.614Z,24.59
2022-12-19T23:00:05.818Z,24.43
2022-12-19T23:02:33.928Z,24.59
2022-12-19T23:05:01.530Z,25.09
2022-12-19T23:07:28.993Z,24.52
2022-12-19T23:09:56.448Z,23.41
2022-12-19T23:12:23.924Z,23.62
2022-12-19T23:14:53.868Z,24.85
2022-12-19T23:17:21.393Z,24.18
2022-12-19T23:19:48.852Z,23.28
2022-12-19T23:22:16.484Z,24.92
2022-12-19T23:24:45.754Z,25.03
2022-12-19T23:27:13.674Z,24.19
2022-12-19T23:29:43.276Z,24.95
2022-12-19T23:32:12.549Z,24.91
2022-12-19T23:34:39.990Z,25.39
2022-12-19T23:37:11.866Z,24.95
2022-12-19T23:39:40.165Z,24.90
2022-12-19T23:42:07.614Z,25.08
2022-12-19T23:44:35.298Z,24.92
2022-12-19T23:47:04.030Z,24.57
2022-12-19T23:49:33.938Z,24.77
2022-12-19T23:52:01.252Z,24.09
2022-12-19T23:54:28.829Z,24.27
2022-12-19T23:56:56.308Z,23.86
2022-12-19T23:59:23.845Z,24.66
